Airfield :
LOGIN :

Register | Disclaimer

   EN    FR    IT 

 










Legend :    VFR   Marginal VFR   IFR   Intensive IFR   Very Intensive IFR
Visi :
Ceiling :
>= 8 km
>= 3000ft
5 to 8 km
1000 to 3000 ft
1500m to 5 km
500 to 1000 ft
800 to 1500m
200 to 500 ft
< 800m
< 200 ft
Symbols :   Thunderstorms  Fog  Heavy snow  Heavy precipitations  Wind > 20 kt
SIGMETs :     Misc.  Thunderstorms  Icing  Turbulence  Mountain Waves  Volcanic Ashes






- Airport Elevation : 11 ft
- IATA code : SKN


ENSK - Stokmarknes Skagen

CURRENT METAR :
  • 251950Z AUTO 13009KT 9999 OVC044/// 11/08 Q1002 REDZ

EXPIRED METARs :
  • 251920Z AUTO 12010KT 9999 OVC055/// 11/07 Q1002
  • 251850Z AUTO 13012KT 9999 BKN046/// BKN100/// 11/07 Q1002
  • 251820Z 13015KT 9999 -SHRA FEW045 BKN052 13/07 Q1002
  • 251750Z 14011KT 9999 VCSH FEW045 BKN053 13/06 Q1002
  • 251720Z 10004KT 060V180 CAVOK 12/06 Q1002

TAF N/A



MET'MAP, your aeronautical weather chart ! - Copyright ORBIFLY December 2007 - Disclaimer

ORBIFLY MET'MAP TEAM :

Programming & Development : Alexandra Zaïnal
Original concept : Baudouin d'Aumeries
Technical & hardware support : Manuel Goepfert
Assistance : Marc-Olivier Méhu

Contact : metmap@orbifly.com




SOURCES & CREDITS :

   NOAA